Time;durP1;ratioP1;P1;durP2;ratioP2;P2;SDS_P1;SDS_P2;PMS_P1;PMS_P2;Temp;Humidity;BMP_temperature;BMP_pressure;BME280_temperature;BME280_humidity;BME280_pressure;Samples;Min_cycle;Max_cycle;Signal;HPM_P1;HPM_P2
2023/03/28 00:01:10;;;;;;;2.93;1.67;;;1.80;92.00;;;5.15;51.53;98428.00;5062998;28;20040;-45
2023/03/28 00:03:38;;;;;;;1.57;1.47;;;1.80;91.20;;;5.12;51.39;98426.44;5043731;28;20416;-48
2023/03/28 00:06:15;;;;;;;4.60;1.90;;;1.80;91.20;;;5.10;51.76;98428.34;5059295;28;20049;-44
2023/03/28 00:08:44;;;;;;;2.97;2.07;;;1.70;91.10;;;5.08;51.64;98426.75;5061445;28;20067;-46
2023/03/28 00:11:18;;;;;;;4.17;2.07;;;1.70;91.20;;;5.10;51.75;98430.13;5047392;28;20103;-43
2023/03/28 00:13:56;;;;;;;2.70;2.00;;;1.70;91.20;;;5.11;51.75;98435.28;5061792;28;20048;-43
2023/03/28 00:16:32;;;;;;;3.93;1.97;;;1.70;91.40;;;5.12;51.93;98444.06;5063312;28;20041;-42
2023/03/28 00:19:04;;;;;;;2.60;1.60;;;1.70;90.90;;;5.15;51.18;98449.13;5066362;28;20041;-47
2023/03/28 00:21:36;;;;;;;6.87;2.40;;;1.70;90.50;;;5.13;51.47;98448.38;5059874;28;20041;-45
2023/03/28 00:24:09;;;;;;;2.57;1.93;;;1.70;90.70;;;5.08;51.79;98446.06;5045183;28;20511;-46
2023/03/28 00:26:37;;;;;;;4.07;1.50;;;1.70;90.10;;;4.99;51.73;98448.50;5061420;28;20056;-44
2023/03/28 00:29:07;;;;;;;2.47;1.43;;;1.60;90.70;;;4.94;51.58;98448.81;5046990;28;20071;-46
2023/03/28 00:31:38;;;;;;;3.60;1.60;;;1.60;90.80;;;5.00;51.39;98448.41;5062657;28;20060;-47
2023/03/28 00:34:06;;;;;;;2.70;1.70;;;1.60;91.00;;;4.96;52.11;98452.19;5062335;28;20384;-44
2023/03/28 00:36:34;;;;;;;3.00;2.03;;;1.60;91.20;;;4.99;51.87;98451.97;5053058;28;20041;-47
2023/03/28 00:39:05;;;;;;;4.00;1.93;;;1.60;91.10;;;4.96;51.23;98452.19;5062272;28;20519;-45
2023/03/28 00:41:41;;;;;;;5.43;2.13;;;1.60;91.10;;;5.01;51.53;98457.16;5062162;28;20036;-47
2023/03/28 00:44:47;;;;;;;3.03;1.80;;;1.70;91.60;;;4.97;52.19;98458.31;5040686;28;20041;-47
2023/03/28 00:47:44;;;;;;;2.93;2.50;;;1.70;91.50;;;4.98;51.82;98454.72;5032840;28;20535;-46
2023/03/28 00:50:36;;;;;;;5.70;2.10;;;1.70;91.50;;;4.96;52.29;98460.09;5049910;28;20041;-47
2023/03/28 00:53:20;;;;;;;3.80;2.00;;;1.70;92.10;;;5.00;51.89;98455.47;5059147;28;20041;-48
2023/03/28 00:55:54;;;;;;;5.85;1.58;;;1.60;91.80;;;5.03;51.31;98464.00;5032448;28;20052;-45
2023/03/28 00:58:26;;;;;;;3.17;2.05;;;1.60;92.10;;;4.99;51.40;98456.44;5062711;28;20043;-46
2023/03/28 01:00:56;;;;;;;5.13;2.53;;;1.60;92.60;;;5.02;51.70;98459.69;5024100;28;20543;-45
2023/03/28 01:03:32;;;;;;;4.00;2.30;;;1.60;92.60;;;4.96;51.88;98459.25;5041023;28;20056;-45
2023/03/28 01:06:03;;;;;;;3.90;2.03;;;1.60;92.70;;;5.00;51.96;98463.38;5033396;28;20045;-45
2023/03/28 01:08:43;;;;;;;4.10;2.10;;;1.60;93.10;;;4.96;52.44;98467.19;5044838;28;20500;-49
2023/03/28 01:11:13;;;;;;;6.47;2.47;;;1.70;94.10;;;4.98;52.26;98463.47;5048211;28;20045;-44
2023/03/28 01:13:49;;;;;;;3.20;2.27;;;1.70;93.40;;;4.98;52.16;98468.75;5047010;28;20037;-46
2023/03/28 01:16:20;;;;;;;3.70;2.30;;;1.70;93.50;;;4.89;52.86;98469.41;5028339;28;20041;-46
2023/03/28 01:18:50;;;;;;;7.00;2.70;;;1.60;93.80;;;4.86;53.03;98469.59;5054335;28;20048;-46
2023/03/28 01:22:05;;;;;;;6.57;2.30;;;1.60;94.20;;;4.81;53.15;98466.44;5039156;28;20049;-44
2023/03/28 01:25:33;;;;;;;5.43;2.20;;;1.60;94.40;;;4.80;52.49;98465.59;5044106;28;20045;-43
2023/03/28 01:28:25;;;;;;;5.40;2.63;;;1.60;94.40;;;4.84;52.66;98469.72;5051337;28;20045;-44
2023/03/28 01:31:34;;;;;;;2.97;2.10;;;1.60;94.70;;;4.82;53.46;98473.41;5060761;28;20095;-45
2023/03/28 01:34:41;;;;;;;3.00;2.37;;;1.60;94.60;;;4.86;52.85;98482.81;5051154;28;20045;-45
2023/03/28 01:37:31;;;;;;;4.67;3.60;;;1.60;94.30;;;4.81;52.91;98477.84;5065367;28;20518;-44
2023/03/28 01:40:38;;;;;;;2.83;2.30;;;1.60;94.80;;;4.79;53.07;98486.78;5057220;28;20114;-45
2023/03/28 01:43:41;;;;;;;3.90;2.40;;;1.60;94.70;;;4.72;52.94;98481.09;5047961;28;20047;-44
2023/03/28 01:46:37;;;;;;;6.70;2.53;;;1.50;95.60;;;4.74;52.67;98485.31;5060718;28;20527;-44
2023/03/28 01:49:27;;;;;;;7.50;2.97;;;1.50;95.50;;;4.70;53.08;98485.63;5061325;28;20522;-44
2023/03/28 01:52:03;;;;;;;4.10;2.57;;;1.50;95.30;;;4.77;52.56;98488.69;5064797;28;20043;-47
2023/03/28 01:55:13;;;;;;;4.50;2.63;;;1.50;95.10;;;4.70;53.45;98490.91;5065043;28;20032;-49
2023/03/28 01:58:13;;;;;;;4.60;2.40;;;1.50;95.00;;;4.74;53.00;98489.75;5035169;28;20215;-47
2023/03/28 02:00:54;;;;;;;5.43;2.40;;;1.50;95.00;;;4.72;53.35;98489.03;5041069;28;20045;-47
2023/03/28 02:03:30;;;;;;;4.47;2.70;;;1.40;95.20;;;4.72;52.47;98489.84;5059655;28;20048;-49
2023/03/28 02:06:07;;;;;;;3.63;2.40;;;1.50;95.40;;;4.77;52.55;98489.56;5060076;28;20077;-45
2023/03/28 02:08:39;;;;;;;4.03;2.60;;;1.50;94.90;;;4.78;52.61;98491.22;5027368;28;20041;-48
2023/03/28 02:11:32;;;;;;;3.63;2.67;;;1.50;94.70;;;4.84;52.44;98493.44;5043779;28;20310;-45
2023/03/28 02:14:18;;;;;;;4.03;2.30;;;1.50;95.10;;;4.87;52.69;98487.97;5050009;28;20041;-47
2023/03/28 02:17:27;;;;;;;3.58;1.98;;;1.50;94.30;;;4.88;52.02;98494.09;5051016;28;20048;-46
2023/03/28 02:20:30;;;;;;;2.97;1.90;;;1.50;93.40;;;4.89;52.19;98483.44;5050047;28;20045;-47
2023/03/28 02:23:30;;;;;;;3.87;2.23;;;1.50;93.80;;;4.88;52.38;98487.00;5062379;28;20055;-44
2023/03/28 02:26:17;;;;;;;3.83;2.17;;;1.50;93.30;;;4.91;52.02;98494.72;5069543;28;20059;-44
2023/03/28 02:28:58;;;;;;;4.83;2.77;;;1.60;93.60;;;4.92;52.18;98491.16;5047954;28;20052;-45
2023/03/28 02:31:45;;;;;;;5.27;2.63;;;1.50;93.10;;;4.93;52.02;98489.34;5047665;28;20052;-43
2023/03/28 02:34:13;;;;;;;3.97;2.47;;;1.50;93.10;;;4.93;51.76;98487.56;5042654;28;20037;-47
2023/03/28 02:37:12;;;;;;;5.43;2.60;;;1.60;93.00;;;4.86;52.53;98483.63;5059562;28;20044;-46
2023/03/28 02:40:12;;;;;;;4.73;2.97;;;1.60;92.60;;;4.86;52.59;98486.28;5023290;28;20045;-44
2023/03/28 02:43:09;;;;;;;5.73;2.20;;;1.60;92.50;;;4.90;52.00;98486.91;5042460;28;20512;-44
2023/03/28 02:45:59;;;;;;;4.20;2.43;;;1.60;92.10;;;4.89;51.96;98480.81;5060582;28;20049;-44
2023/03/28 02:49:18;;;;;;;3.67;2.53;;;1.50;91.70;;;4.86;51.34;98486.28;5029696;28;20055;-47
2023/03/28 02:52:14;;;;;;;5.03;2.30;;;1.50;92.00;;;4.86;51.67;98483.63;4996301;28;20504;-44
2023/03/28 02:55:17;;;;;;;4.83;2.17;;;1.50;92.00;;;4.81;51.86;98487.53;5031423;28;20471;-44
2023/03/28 02:58:13;;;;;;;6.77;2.97;;;1.40;92.40;;;4.82;51.96;98487.44;5041761;28;20057;-44
2023/03/28 03:00:41;;;;;;;4.57;2.00;;;1.40;92.30;;;4.81;52.09;98484.91;5026614;28;20056;-48
2023/03/28 03:03:10;;;;;;;5.40;2.03;;;1.40;92.20;;;4.79;51.96;98478.88;5059863;28;20037;-46
2023/03/28 03:05:37;;;;;;;4.90;2.27;;;1.40;92.40;;;4.83;52.15;98488.31;5042942;28;20052;-44
2023/03/28 03:08:06;;;;;;;6.37;2.50;;;1.40;92.10;;;4.80;52.29;98486.69;5037225;28;20044;-48
2023/03/28 03:10:35;;;;;;;3.47;2.20;;;1.40;91.90;;;4.80;52.01;98484.06;5063838;28;20049;-47
2023/03/28 03:13:02;;;;;;;3.70;2.33;;;1.50;92.10;;;4.78;51.81;98485.97;5053781;28;20051;-45
2023/03/28 03:15:34;;;;;;;4.30;2.60;;;1.40;91.40;;;4.76;51.76;98489.66;5061779;28;20040;-44
2023/03/28 03:18:19;;;;;;;5.87;2.20;;;1.40;91.40;;;4.78;51.46;98483.31;5045381;28;20500;-43
2023/03/28 03:20:49;;;;;;;3.00;2.10;;;1.40;91.30;;;4.76;51.91;98482.59;5063095;28;20049;-44
2023/03/28 03:23:17;;;;;;;6.37;2.23;;;1.40;91.10;;;4.71;52.18;98490.81;5069612;28;20519;-45
2023/03/28 03:25:44;;;;;;;4.53;2.60;;;1.30;91.80;;;4.73;51.27;98488.09;5062434;28;20071;-49
2023/03/28 03:28:25;;;;;;;4.27;2.50;;;1.30;91.00;;;4.73;51.25;98481.00;5045250;28;20416;-49
2023/03/28 03:30:54;;;;;;;3.70;1.50;;;1.40;90.60;;;4.71;52.09;98480.28;5058149;28;20053;-45
2023/03/28 03:33:30;;;;;;;5.50;1.90;;;1.30;90.60;;;4.72;51.52;98486.38;5061466;28;20049;-47
2023/03/28 03:36:04;;;;;;;6.83;1.90;;;1.30;90.30;;;4.71;51.87;98482.91;5044819;28;20044;-45
2023/03/28 03:38:33;;;;;;;6.57;2.40;;;1.30;90.10;;;4.68;51.40;98483.09;5053412;28;20043;-47
2023/03/28 03:41:01;;;;;;;3.60;2.00;;;1.30;89.90;;;4.65;51.48;98479.81;5063070;28;20107;-45
2023/03/28 03:43:29;;;;;;;3.93;2.23;;;1.20;90.20;;;4.67;52.04;98488.47;5053131;28;20052;-45
2023/03/28 03:45:58;;;;;;;3.83;2.70;;;1.20;89.70;;;4.67;51.59;98485.84;5063085;28;20432;-45
2023/03/28 03:48:27;;;;;;;3.23;1.90;;;1.30;89.80;;;4.67;51.39;98491.97;5052721;28;20070;-48
2023/03/28 03:50:59;;;;;;;5.23;1.97;;;1.30;89.80;;;4.68;51.50;98488.38;5044663;28;20056;-50
2023/03/28 03:53:27;;;;;;;5.57;2.40;;;1.30;89.50;;;4.69;51.26;98487.44;5052999;28;20044;-45
2023/03/28 03:56:05;;;;;;;5.43;2.53;;;1.30;88.80;;;4.65;51.55;98477.19;5037388;28;20048;-46
2023/03/28 03:58:56;;;;;;;5.10;2.37;;;1.20;89.10;;;4.61;51.16;98480.97;5043220;28;20048;-45
2023/03/28 04:01:29;;;;;;;5.13;2.07;;;1.20;89.70;;;4.61;51.56;98480.97;5046316;28;20041;-45
2023/03/28 04:04:17;;;;;;;2.97;1.80;;;1.20;89.10;;;4.60;50.82;98477.50;5031686;28;20424;-49
2023/03/28 04:07:06;;;;;;;3.33;2.23;;;1.20;88.90;;;4.59;51.58;98475.81;5041628;28;20048;-43
2023/03/28 04:09:35;;;;;;;4.53;2.40;;;1.10;88.70;;;4.54;51.08;98476.13;5061146;28;20064;-48
2023/03/28 04:12:06;;;;;;;3.53;2.30;;;1.10;89.00;;;4.53;51.23;98479.69;5049656;28;20500;-45
2023/03/28 04:14:44;;;;;;;3.57;2.17;;;1.10;89.40;;;4.54;50.86;98484.03;5049611;28;20052;-45
2023/03/28 04:17:33;;;;;;;3.70;2.00;;;1.10;89.00;;;4.50;51.11;98482.56;5061454;28;20052;-46
2023/03/28 04:20:10;;;;;;;4.93;2.00;;;1.10;89.00;;;4.51;51.08;98484.22;5040324;28;20041;-44
2023/03/28 04:22:53;;;;;;;4.93;2.60;;;1.10;89.00;;;4.48;51.12;98487.09;5049055;28;20535;-44
2023/03/28 04:25:23;;;;;;;4.13;1.97;;;1.00;89.00;;;4.47;51.66;98485.38;5052650;28;20055;-44
2023/03/28 04:27:53;;;;;;;5.27;2.20;;;1.00;89.10;;;4.46;51.54;98494.25;5062464;28;20049;-45
2023/03/28 04:30:23;;;;;;;2.73;1.87;;;1.00;88.90;;;4.46;51.36;98499.53;5052601;28;20441;-45
2023/03/28 04:33:23;;;;;;;4.20;2.10;;;1.00;89.10;;;4.48;51.02;98507.34;5025101;28;20060;-46
2023/03/28 04:35:59;;;;;;;5.83;2.37;;;1.00;88.60;;;4.47;50.76;98510.91;5060982;28;20048;-44
2023/03/28 04:38:31;;;;;;;6.17;2.20;;;1.00;88.80;;;4.45;51.70;98513.66;5062314;28;20037;-46
2023/03/28 04:41:15;;;;;;;2.72;2.00;;;1.00;88.40;;;4.45;51.23;98511.00;5036281;28;20504;-47
2023/03/28 04:44:18;;;;;;;3.13;2.20;;;1.00;88.60;;;4.45;50.60;98512.81;5057125;28;20051;-47
2023/03/28 04:46:55;;;;;;;3.63;2.03;;;1.00;88.30;;;4.43;51.26;98512.06;5056147;28;20504;-45
2023/03/28 04:49:23;;;;;;;6.23;2.07;;;1.00;88.20;;;4.41;50.57;98511.31;5056449;28;20048;-44
2023/03/28 04:51:51;;;;;;;4.00;2.27;;;0.90;88.60;;;4.41;51.34;98512.16;5048189;28;20059;-49
2023/03/28 04:54:19;;;;;;;7.17;2.37;;;0.90;88.50;;;4.43;51.15;98514.69;5039930;28;20044;-43
2023/03/28 04:56:47;;;;;;;3.03;1.63;;;0.90;88.60;;;4.43;51.60;98522.63;5066383;28;20041;-43
2023/03/28 04:59:20;;;;;;;3.23;1.70;;;1.00;88.50;;;4.45;51.23;98515.44;5064335;28;20044;-46
2023/03/28 05:01:48;;;;;;;4.40;2.17;;;1.00;88.00;;;4.42;50.90;98527.06;5055490;28;20291;-45
2023/03/28 05:04:34;;;;;;;7.43;2.20;;;1.00;88.20;;;4.42;51.16;98521.78;5067697;28;20522;-45
2023/03/28 05:07:04;;;;;;;5.07;2.30;;;1.00;88.20;;;4.43;51.24;98520.81;5061392;28;20052;-45
2023/03/28 05:09:33;;;;;;;9.13;2.70;;;1.00;88.00;;;4.46;51.14;98520.63;5047662;28;20045;-45
2023/03/28 05:12:01;;;;;;;7.47;2.07;;;1.10;87.90;;;4.48;51.17;98531.06;5070745;28;20049;-47
2023/03/28 05:14:30;;;;;;;4.00;2.30;;;1.10;87.30;;;4.50;50.58;98523.91;5047256;28;20420;-43
2023/03/28 05:17:10;;;;;;;4.77;2.07;;;1.10;87.00;;;4.51;50.78;98533.50;5044086;28;20078;-45
2023/03/28 05:19:56;;;;;;;5.70;3.03;;;1.10;87.60;;;4.51;51.42;98534.34;5052112;28;20412;-48
2023/03/28 05:22:26;;;;;;;3.60;2.33;;;1.10;87.30;;;4.53;50.32;98534.22;5049904;28;20045;-45
2023/03/28 05:24:58;;;;;;;7.03;2.67;;;1.10;86.70;;;4.49;50.86;98535.38;5061407;28;20052;-48
2023/03/28 05:27:26;;;;;;;5.00;2.40;;;1.10;86.90;;;4.49;50.81;98548.56;5050437;28;20045;-43
2023/03/28 05:29:54;;;;;;;9.03;3.63;;;1.10;86.70;;;4.49;50.92;98548.56;5067745;28;20052;-42
2023/03/28 05:32:22;;;;;;;5.40;2.57;;;1.10;86.90;;;4.50;50.93;98551.13;5055326;28;20040;-43
2023/03/28 05:34:52;;;;;;;5.07;2.27;;;1.10;86.70;;;4.50;50.88;98552.91;5047454;28;20052;-44
2023/03/28 05:37:21;;;;;;;3.93;1.87;;;1.10;86.50;;;4.51;51.10;98555.44;5055428;28;20574;-42
2023/03/28 05:39:50;;;;;;;5.13;2.93;;;1.10;86.10;;;4.49;51.26;98557.31;5047449;28;20040;-47
2023/03/28 05:42:18;;;;;;;3.57;2.00;;;1.10;86.80;;;4.49;50.94;98554.69;5055055;28;20052;-47
2023/03/28 05:44:46;;;;;;;5.57;2.17;;;1.10;86.50;;;4.52;50.86;98564.22;5046645;28;20045;-44
2023/03/28 05:47:33;;;;;;;3.20;2.10;;;1.10;86.20;;;4.52;50.27;98567.69;5066028;28;20051;-46
2023/03/28 05:50:01;;;;;;;9.40;2.60;;;1.10;86.50;;;4.50;50.90;98571.38;5060128;28;20401;-45
2023/03/28 05:52:29;;;;;;;4.47;2.27;;;1.10;86.70;;;4.53;50.96;98566.72;5055606;28;20063;-44
2023/03/28 05:54:57;;;;;;;5.30;2.50;;;1.20;86.60;;;4.59;50.92;98568.09;5063209;28;20051;-44
2023/03/28 05:57:25;;;;;;;5.20;2.10;;;1.20;86.40;;;4.60;51.18;98574.25;5063037;28;20045;-47
2023/03/28 05:59:53;;;;;;;6.40;2.20;;;1.20;85.50;;;4.66;51.28;98585.22;5054759;28;20056;-45
2023/03/28 06:02:23;;;;;;;4.73;2.23;;;1.30;85.80;;;4.68;50.67;98575.44;5051066;28;20064;-43
2023/03/28 06:04:56;;;;;;;4.17;2.27;;;1.30;87.00;;;4.73;50.59;98581.25;5069782;28;20415;-46
2023/03/28 06:07:24;;;;;;;4.90;2.63;;;1.30;85.80;;;4.76;50.76;98584.63;5042680;28;20045;-43
2023/03/28 06:10:12;;;;;;;6.90;2.87;;;1.40;85.30;;;4.82;50.48;98597.41;5062364;28;20041;-43
2023/03/28 06:12:44;;;;;;;3.40;2.30;;;1.40;85.30;;;4.85;50.36;98595.41;5046228;28;20044;-45
2023/03/28 06:15:11;;;;;;;5.97;2.90;;;1.40;85.10;;;4.89;50.80;98590.78;5043407;28;20041;-48
2023/03/28 06:17:43;;;;;;;6.97;3.00;;;1.50;84.80;;;4.92;50.34;98590.56;5059994;28;20041;-47
2023/03/28 06:20:11;;;;;;;5.00;2.40;;;1.50;84.60;;;4.97;50.48;98595.56;5053732;28;20041;-47
2023/03/28 06:22:39;;;;;;;3.97;2.27;;;1.60;84.30;;;5.01;50.34;98597.88;5046010;28;20052;-43
2023/03/28 06:25:09;;;;;;;8.20;2.80;;;1.60;84.00;;;5.06;50.84;98594.91;5059588;28;20049;-42
2023/03/28 06:27:37;;;;;;;9.30;2.73;;;1.70;84.50;;;5.10;50.30;98599.06;5059541;28;20041;-47
2023/03/28 06:30:06;;;;;;;5.53;1.80;;;1.70;83.40;;;5.16;50.02;98597.78;5062777;28;20049;-42
2023/03/28 06:32:42;;;;;;;3.17;2.17;;;1.80;83.30;;;5.21;50.85;98600.97;5054623;28;20048;-43
2023/03/28 06:35:12;;;;;;;5.70;2.30;;;1.80;82.70;;;5.22;49.81;98600.88;5046066;28;20423;-46
2023/03/28 06:37:39;;;;;;;9.33;2.43;;;1.90;82.50;;;5.24;50.50;98601.59;5064320;28;20037;-45
2023/03/28 06:40:08;;;;;;;5.20;2.33;;;1.90;82.50;;;5.27;50.36;98614.59;5059619;28;20048;-43
2023/03/28 06:42:36;;;;;;;4.13;1.90;;;2.00;81.90;;;5.30;50.40;98619.66;5045893;28;20057;-44
2023/03/28 06:45:33;;;;;;;4.70;2.13;;;2.00;81.20;;;5.35;50.31;98615.88;5053849;28;20056;-43
2023/03/28 06:48:07;;;;;;;5.33;2.53;;;2.00;81.70;;;5.38;50.08;98615.66;5061374;28;20045;-46
2023/03/28 06:51:05;;;;;;;5.23;2.10;;;2.10;81.50;;;5.42;50.15;98619.78;5049593;28;20433;-44
2023/03/28 06:53:34;;;;;;;5.03;2.07;;;2.10;80.70;;;5.42;49.63;98620.63;5062297;28;20051;-44
2023/03/28 06:56:03;;;;;;;5.87;2.30;;;2.10;80.70;;;5.45;49.99;98615.13;5041412;28;20071;-44
2023/03/28 06:58:31;;;;;;;6.37;2.50;;;2.10;80.40;;;5.46;49.71;98615.97;5040350;28;20048;-44
2023/03/28 07:01:05;;;;;;;4.83;2.70;;;2.10;80.20;;;5.50;50.38;98617.47;5043989;28;20045;-44
2023/03/28 07:03:36;;;;;;;5.67;2.40;;;2.20;80.80;;;5.53;49.74;98614.63;5063340;28;20423;-47
2023/03/28 07:06:07;;;;;;;6.27;2.60;;;2.20;79.50;;;5.53;49.28;98612.81;5051403;28;20058;-46
2023/03/28 07:08:35;;;;;;;3.93;2.33;;;2.20;79.10;;;5.57;49.72;98617.91;5041472;28;20052;-43
2023/03/28 07:11:04;;;;;;;4.57;2.20;;;2.30;79.60;;;5.61;49.77;98622.84;5033872;28;20053;-47
2023/03/28 07:13:32;;;;;;;5.60;2.50;;;2.30;79.60;;;5.65;49.25;98619.03;5062325;28;20047;-43
2023/03/28 07:16:10;;;;;;;5.43;2.03;;;2.30;79.40;;;5.69;49.72;98615.22;5042983;28;20051;-47
2023/03/28 07:18:38;;;;;;;5.60;2.07;;;2.40;79.00;;;5.75;49.99;98626.34;5059994;28;20044;-45
2023/03/28 07:21:12;;;;;;;3.97;2.00;;;2.40;78.90;;;5.79;49.30;98630.44;5043734;28;20481;-45
2023/03/28 07:23:43;;;;;;;4.33;1.87;;;2.50;79.10;;;5.83;49.29;98624.00;5053416;28;20047;-49
2023/03/28 07:26:14;;;;;;;3.63;2.23;;;2.50;78.50;;;5.86;49.20;98615.88;5063243;28;20032;-44
2023/03/28 07:28:42;;;;;;;3.20;1.77;;;2.50;78.50;;;5.86;48.78;98626.44;5053410;28;20423;-46
2023/03/28 07:31:10;;;;;;;4.23;2.17;;;2.50;77.60;;;5.83;49.52;98630.13;5044845;28;20044;-43
2023/03/28 07:33:40;;;;;;;5.20;2.23;;;2.40;76.30;;;5.76;49.02;98630.66;5036963;28;20047;-44
2023/03/28 07:36:18;;;;;;;7.30;3.23;;;2.40;76.70;;;5.77;48.34;98637.63;5061158;28;20063;-47
2023/03/28 07:38:49;;;;;;;5.93;2.60;;;2.40;75.60;;;5.79;48.62;98646.31;5044335;28;20051;-44
2023/03/28 07:41:21;;;;;;;4.63;3.17;;;2.40;75.20;;;5.76;48.77;98641.22;5049139;28;20045;-43
2023/03/28 07:43:49;;;;;;;5.53;2.20;;;2.40;76.40;;;5.76;48.49;98641.22;5054302;28;20508;-46
2023/03/28 07:46:16;;;;;;;7.07;2.33;;;2.40;76.20;;;5.76;48.69;98647.38;5058060;28;20041;-47
2023/03/28 07:48:45;;;;;;;5.53;2.77;;;2.40;75.90;;;5.81;48.40;98660.25;5041640;28;20056;-46
2023/03/28 07:51:14;;;;;;;7.70;2.20;;;2.50;75.30;;;5.83;48.45;98656.53;5051528;28;20513;-44
2023/03/28 07:53:41;;;;;;;4.03;1.90;;;2.50;75.80;;;5.90;48.02;98655.19;5044403;28;20052;-45
2023/03/28 07:56:10;;;;;;;4.10;1.80;;;2.60;74.10;;;5.91;48.42;98659.53;5053281;28;20056;-47
2023/03/28 07:58:54;;;;;;;5.93;2.47;;;2.60;74.10;;;5.96;48.08;98664.50;5052654;28;20523;-44
2023/03/28 08:01:21;;;;;;;3.50;2.30;;;2.70;74.90;;;6.00;48.39;98660.69;5052118;28;20415;-45
2023/03/28 08:03:54;;;;;;;4.93;2.40;;;2.70;74.30;;;6.00;48.33;98665.97;5060750;28;20045;-50
2023/03/28 08:06:32;;;;;;;7.57;3.37;;;2.70;74.60;;;6.05;47.87;98669.16;5052507;28;20408;-50
2023/03/28 08:09:01;;;;;;;7.03;2.40;;;2.70;75.00;;;6.07;47.95;98664.59;5052417;28;20044;-43
2023/03/28 08:11:34;;;;;;;6.87;3.50;;;2.80;74.80;;;6.10;48.13;98674.94;5053023;28;20056;-46
2023/03/28 08:14:04;;;;;;;4.40;2.47;;;2.80;75.30;;;6.09;47.96;98672.44;5041403;28;20072;-44
2023/03/28 08:16:32;;;;;;;3.40;2.27;;;2.80;74.40;;;6.03;48.06;98667.56;5044990;28;20060;-44
2023/03/28 08:19:00;;;;;;;4.77;2.77;;;2.80;74.20;;;6.08;47.85;98666.28;5058312;28;20041;-43
2023/03/28 08:21:48;;;;;;;12.43;3.37;;;2.80;75.00;;;6.20;48.35;98669.03;5045047;28;20060;-47
2023/03/28 08:24:15;;;;;;;7.90;2.80;;;3.00;74.80;;;6.22;48.01;98662.69;5072573;28;20079;-46
2023/03/28 08:27:02;;;;;;;5.30;2.70;;;3.00;74.80;;;6.33;48.26;98669.00;5065814;28;20036;-47
2023/03/28 08:29:30;;;;;;;5.20;2.27;;;3.10;75.60;;;6.36;48.43;98668.78;5060973;28;20041;-48
2023/03/28 08:31:57;;;;;;;5.30;2.50;;;3.10;74.60;;;6.35;47.83;98673.22;5045496;28;20045;-44
2023/03/28 08:34:25;;;;;;;4.93;2.93;;;3.10;74.60;;;6.40;48.33;98672.91;5048140;28;20411;-47
2023/03/28 08:36:58;;;;;;;6.87;3.70;;;3.10;74.70;;;6.48;48.11;98665.25;5056496;28;20512;-44
2023/03/28 08:39:27;;;;;;;3.27;2.07;;;3.30;74.30;;;6.62;48.11;98674.84;5066302;28;20040;-43
2023/03/28 08:42:22;;;;;;;3.77;2.00;;;3.40;72.60;;;6.77;47.99;98672.91;5056094;28;20051;-45
2023/03/28 08:45:25;;;;;;;5.07;3.00;;;3.60;73.50;;;6.92;47.23;98666.47;5052301;28;20059;-44
2023/03/28 08:48:18;;;;;;;5.50;2.30;;;3.80;69.60;;;7.04;47.23;98667.38;5062106;28;20412;-46
2023/03/28 08:51:04;;;;;;;6.00;1.83;;;3.80;69.30;;;7.01;46.73;98668.41;5051497;28;20122;-43
2023/03/28 08:53:42;;;;;;;10.20;2.37;;;3.90;68.90;;;7.08;46.74;98668.84;5061659;28;20036;-44
2023/03/28 08:56:15;;;;;;;3.90;2.40;;;3.80;68.30;;;7.17;47.02;98667.28;5046048;28;20056;-48
2023/03/28 08:59:06;;;;;;;4.93;1.87;;;3.90;70.70;;;7.22;46.42;98678.38;5031916;28;20053;-47
2023/03/28 09:01:34;;;;;;;5.00;2.40;;;4.00;68.20;;;7.29;45.61;98666.38;5048529;28;20412;-48
2023/03/28 09:04:03;;;;;;;5.90;1.80;;;4.00;64.70;;;7.26;45.80;98670.09;5055832;28;20055;-43
2023/03/28 09:06:39;;;;;;;5.13;1.83;;;4.00;64.70;;;7.26;44.98;98670.09;5056224;28;20071;-48
2023/03/28 09:09:49;;;;;;;7.03;1.70;;;3.90;63.90;;;7.24;45.12;98664.06;5055312;28;20052;-45
2023/03/28 09:13:04;;;;;;;6.70;1.93;;;4.10;64.80;;;7.45;45.39;98676.66;5023523;28;20052;-46
2023/03/28 09:15:50;;;;;;;9.07;2.07;;;4.30;64.00;;;7.50;44.48;98674.50;5060434;28;20428;-45
2023/03/28 09:18:46;;;;;;;4.17;2.27;;;4.30;61.20;;;7.59;44.06;98671.13;5046525;28;20045;-46
2023/03/28 09:21:50;;;;;;;2.73;1.83;;;4.50;61.50;;;7.78;43.87;98670.56;5029060;28;20060;-43
2023/03/28 09:25:13;;;;;;;4.43;2.20;;;4.60;58.00;;;7.92;43.37;98669.50;5049794;28;20415;-45
2023/03/28 09:28:37;;;;;;;5.30;2.50;;;4.90;58.60;;;8.04;43.57;98676.50;5060177;28;20575;-47
2023/03/28 09:31:08;;;;;;;2.93;2.03;;;5.00;58.90;;;8.24;43.34;98669.63;4999968;28;20455;-44
2023/03/28 09:33:41;;;;;;;3.13;1.70;;;5.10;60.30;;;8.16;41.32;98672.06;5045163;28;20041;-45
2023/03/28 09:36:26;;;;;;;4.97;1.87;;;5.10;56.80;;;8.09;40.89;98676.16;5047245;28;20052;-45
2023/03/28 09:39:17;;;;;;;7.47;2.37;;;5.00;54.40;;;8.18;41.75;98671.91;5031877;28;20044;-46
2023/03/28 09:41:52;;;;;;;4.67;2.87;;;5.00;57.90;;;8.30;42.49;98673.63;5039941;28;20048;-44
2023/03/28 09:45:06;;;;;;;2.72;1.75;;;5.10;58.80;;;8.41;42.58;98664.78;5052348;28;20056;-45
2023/03/28 09:47:52;;;;;;;4.47;1.93;;;5.30;58.40;;;8.47;42.21;98664.31;5053738;28;20543;-43
2023/03/28 09:50:25;;;;;;;4.97;2.23;;;5.30;59.00;;;8.46;41.80;98663.50;5063170;28;20040;-46
2023/03/28 09:52:57;;;;;;;4.57;2.03;;;5.30;58.00;;;8.49;42.25;98665.03;5055121;28;20049;-48
2023/03/28 09:55:29;;;;;;;3.87;1.73;;;5.30;59.60;;;8.59;40.92;98663.34;5063842;28;20051;-47
2023/03/28 09:58:13;;;;;;;4.03;1.87;;;5.40;56.40;;;8.45;39.36;98650.34;5043663;28;20053;-44
2023/03/28 10:01:23;;;;;;;3.30;1.90;;;5.40;50.40;;;8.60;39.30;98651.75;5062613;28;20056;-45
2023/03/28 10:04:14;;;;;;;3.10;1.60;;;5.40;53.70;;;8.69;40.27;98652.00;5053047;28;20389;-44
2023/03/28 10:07:10;;;;;;;4.23;1.50;;;5.60;55.90;;;8.80;40.08;98641.31;5063997;28;20064;-43
2023/03/28 10:09:53;;;;;;;3.13;1.77;;;5.60;52.00;;;8.81;40.13;98637.72;5035694;28;20396;-47
2023/03/28 10:12:34;;;;;;;2.63;1.80;;;5.50;53.10;;;8.66;39.76;98635.31;5060091;28;20378;-44
2023/03/28 10:15:02;;;;;;;3.80;1.60;;;5.50;52.70;;;8.51;39.33;98638.38;5062267;28;20045;-42
2023/03/28 10:17:49;;;;;;;3.53;1.80;;;5.40;52.40;;;8.42;40.06;98630.22;5039381;28;20424;-43
2023/03/28 10:20:23;;;;;;;2.50;1.90;;;5.30;56.40;;;8.43;39.98;98631.03;5054525;28;20045;-45
2023/03/28 10:22:56;;;;;;;3.60;1.90;;;5.20;56.10;;;8.46;40.19;98631.66;5046924;28;20048;-49
2023/03/28 10:25:44;;;;;;;4.70;1.70;;;5.20;56.50;;;8.47;40.17;98630.69;5031183;28;20044;-45
2023/03/28 10:28:27;;;;;;;3.93;1.60;;;5.20;53.90;;;8.50;40.24;98628.75;5030852;28;20044;-43
2023/03/28 10:31:00;;;;;;;6.53;1.70;;;5.20;56.00;;;8.51;40.06;98622.47;5039820;28;20044;-42
2023/03/28 10:33:41;;;;;;;4.10;1.70;;;5.20;55.70;;;8.47;39.83;98619.22;5052627;28;20044;-44
2023/03/28 10:36:41;;;;;;;5.67;1.90;;;5.20;55.40;;;8.48;39.77;98631.53;5061162;28;20051;-44
2023/03/28 10:39:23;;;;;;;3.97;1.60;;;5.20;55.60;;;8.50;39.91;98626.94;5052683;28;20044;-48
2023/03/28 10:42:10;;;;;;;3.43;1.87;;;5.20;54.60;;;8.54;39.58;98619.56;5071233;28;20060;-47
2023/03/28 10:45:01;;;;;;;3.30;2.17;;;5.30;54.90;;;8.53;38.82;98626.69;5046663;28;20044;-46
2023/03/28 10:47:33;;;;;;;4.30;2.57;;;5.30;51.60;;;8.60;39.27;98611.94;5051828;28;20052;-45
2023/03/28 10:50:18;;;;;;;10.40;4.47;;;5.40;54.50;;;8.69;39.64;98617.50;5060014;28;20419;-48
2023/03/28 10:53:17;;;;;;;29.57;14.87;;;5.60;54.50;;;8.75;38.79;98619.63;5048660;28;20055;-43
2023/03/28 10:56:33;;;;;;;5.23;2.07;;;5.60;48.20;;;8.72;38.79;98622.53;5035286;28;20049;-47
2023/03/28 10:59:24;;;;;;;2.20;1.57;;;5.60;51.30;;;8.62;37.72;98620.63;5059339;28;20167;-49
2023/03/28 11:02:30;;;;;;;4.23;1.60;;;5.50;48.50;;;8.58;38.37;98615.69;5049284;28;20107;-46
2023/03/28 11:05:43;;;;;;;4.95;1.63;;;5.50;51.30;;;8.65;39.34;98614.25;5050733;28;20052;-42
2023/03/28 11:08:43;;;;;;;2.70;1.73;;;5.60;52.20;;;8.85;39.43;98616.09;5042402;28;20048;-50
2023/03/28 11:11:52;;;;;;;4.07;1.87;;;5.80;54.00;;;9.05;39.64;98609.13;5029026;28;20044;-43
2023/03/28 11:14:48;;;;;;;3.20;1.87;;;6.00;53.60;;;9.12;38.17;98609.44;5029516;28;20064;-46
2023/03/28 11:17:54;;;;;;;5.73;2.00;;;6.10;51.20;;;9.16;38.43;98599.41;5044673;28;20047;-47
2023/03/28 11:20:37;;;;;;;2.00;1.20;;;6.20;50.30;;;9.18;37.85;98590.34;5038536;28;20397;-43
2023/03/28 11:23:49;;;;;;;5.87;2.23;;;6.20;50.80;;;9.21;38.26;98591.91;5053967;28;20048;-44
2023/03/28 11:27:21;;;;;;;2.93;1.50;;;6.20;50.60;;;9.32;38.07;98589.16;5042341;28;20056;-46